sensor_id;sensor_type;location;lat;lon;timestamp;pressure;altitude;pressure_sealevel;temperature;humidity
79729;BME280;69218;52.132;5.418;2024-03-23T00:53:38;101178.47;;;7.33;100.00
79729;BME280;69218;52.132;5.418;2024-03-23T00:56:03;101177.59;;;7.33;100.00
79729;BME280;69218;52.132;5.418;2024-03-23T00:58:30;101170.72;;;7.32;100.00
79729;BME280;69218;52.132;5.418;2024-03-23T01:00:55;101170.81;;;7.30;100.00
79729;BME280;69218;52.132;5.418;2024-03-23T01:03:21;101181.34;;;7.29;100.00
79729;BME280;69218;52.132;5.418;2024-03-23T01:05:47;101171.94;;;7.26;100.00
79729;BME280;69218;52.132;5.418;2024-03-23T01:08:14;101172.13;;;7.23;100.00
79729;BME280;69218;52.132;5.418;2024-03-23T01:10:40;101174.72;;;7.23;100.00
79729;BME280;69218;52.132;5.418;2024-03-23T01:13:05;101174.63;;;7.25;100.00
79729;BME280;69218;52.132;5.418;2024-03-23T01:15:31;101162.63;;;7.22;100.00
79729;BME280;69218;52.132;5.418;2024-03-23T01:17:57;101166.06;;;7.23;100.00
79729;BME280;69218;52.132;5.418;2024-03-23T01:20:22;101157.41;;;7.22;100.00
79729;BME280;69218;52.132;5.418;2024-03-23T01:22:48;101159.19;;;7.22;100.00
79729;BME280;69218;52.132;5.418;2024-03-23T01:25:13;101158.25;;;7.23;100.00
79729;BME280;69218;52.132;5.418;2024-03-23T01:27:40;101149.59;;;7.22;100.00
79729;BME280;69218;52.132;5.418;2024-03-23T01:30:07;101143.53;;;7.22;100.00
79729;BME280;69218;52.132;5.418;2024-03-23T01:32:33;101140.84;;;7.23;100.00
79729;BME280;69218;52.132;5.418;2024-03-23T01:34:58;101138.31;;;7.22;100.00
79729;BME280;69218;52.132;5.418;2024-03-23T01:37:24;101136.75;;;7.19;100.00
79729;BME280;69218;52.132;5.418;2024-03-23T01:39:49;101128.16;;;7.17;100.00
79729;BME280;69218;52.132;5.418;2024-03-23T01:42:15;101125.66;;;7.15;100.00
79729;BME280;69218;52.132;5.418;2024-03-23T01:44:40;101117.22;;;7.12;100.00
79729;BME280;69218;52.132;5.418;2024-03-23T01:47:06;101106.13;;;7.08;100.00
79729;BME280;69218;52.132;5.418;2024-03-23T01:49:33;101116.81;;;7.04;100.00
79729;BME280;69218;52.132;5.418;2024-03-23T01:51:59;101113.56;;;7.00;100.00
79729;BME280;69218;52.132;5.418;2024-03-23T01:54:25;101110.38;;;6.95;100.00
79729;BME280;69218;52.132;5.418;2024-03-23T01:56:50;101107.16;;;6.92;100.00
79729;BME280;69218;52.132;5.418;2024-03-23T01:59:16;101107.31;;;6.88;100.00
79729;BME280;69218;52.132;5.418;2024-03-23T02:01:41;101107.66;;;6.82;100.00
79729;BME280;69218;52.132;5.418;2024-03-23T02:04:07;101102.00;;;6.76;100.00
79729;BME280;69218;52.132;5.418;2024-03-23T02:06:35;101109.31;;;6.69;100.00
79729;BME280;69218;52.132;5.418;2024-03-23T02:09:00;101107.19;;;6.61;100.00
79729;BME280;69218;52.132;5.418;2024-03-23T02:11:26;101114.25;;;6.59;100.00
79729;BME280;69218;52.132;5.418;2024-03-23T02:13:51;101106.53;;;6.58;100.00
79729;BME280;69218;52.132;5.418;2024-03-23T02:16:17;101104.09;;;6.55;100.00
79729;BME280;69218;52.132;5.418;2024-03-23T02:18:43;101106.78;;;6.53;100.00
79729;BME280;69218;52.132;5.418;2024-03-23T02:21:08;101110.69;;;6.46;100.00
79729;BME280;69218;52.132;5.418;2024-03-23T02:23:34;101102.13;;;6.44;100.00
79729;BME280;69218;52.132;5.418;2024-03-23T02:26:00;101108.38;;;6.42;100.00
79729;BME280;69218;52.132;5.418;2024-03-23T02:28:25;101103.16;;;6.42;100.00
79729;BME280;69218;52.132;5.418;2024-03-23T02:30:51;101099.78;;;6.40;100.00
79729;BME280;69218;52.132;5.418;2024-03-23T02:33:17;101090.31;;;6.39;100.00
79729;BME280;69218;52.132;5.418;2024-03-23T02:35:43;101083.50;;;6.36;100.00
79729;BME280;69218;52.132;5.418;2024-03-23T02:38:09;101088.88;;;6.33;100.00
79729;BME280;69218;52.132;5.418;2024-03-23T02:40:35;101088.16;;;6.31;100.00
79729;BME280;69218;52.132;5.418;2024-03-23T02:43:02;101082.19;;;6.29;100.00
79729;BME280;69218;52.132;5.418;2024-03-23T02:45:28;101084.13;;;6.25;100.00
79729;BME280;69218;52.132;5.418;2024-03-23T02:47:54;101085.06;;;6.24;100.00
79729;BME280;69218;52.132;5.418;2024-03-23T02:50:19;101084.41;;;6.21;100.00
79729;BME280;69218;52.132;5.418;2024-03-23T02:52:45;101085.59;;;6.15;100.00
79729;BME280;69218;52.132;5.418;2024-03-23T02:55:12;101086.59;;;6.13;100.00
79729;BME280;69218;52.132;5.418;2024-03-23T02:57:37;101091.97;;;6.10;100.00
79729;BME280;69218;52.132;5.418;2024-03-23T03:00:03;101087.03;;;6.05;100.00
79729;BME280;69218;52.132;5.418;2024-03-23T03:02:29;101089.91;;;6.00;100.00
79729;BME280;69218;52.132;5.418;2024-03-23T03:04:54;101081.59;;;5.94;100.00
79729;BME280;69218;52.132;5.418;2024-03-23T03:07:20;101093.06;;;5.90;100.00
79729;BME280;69218;52.132;5.418;2024-03-23T03:09:45;101097.53;;;5.88;100.00
79729;BME280;69218;52.132;5.418;2024-03-23T03:12:11;101090.75;;;5.85;100.00
79729;BME280;69218;52.132;5.418;2024-03-23T03:14:37;101091.72;;;5.83;100.00
79729;BME280;69218;52.132;5.418;2024-03-23T03:17:02;101084.34;;;5.75;100.00
79729;BME280;69218;52.132;5.418;2024-03-23T03:19:29;101088.91;;;5.71;100.00
79729;BME280;69218;52.132;5.418;2024-03-23T03:21:55;101092.69;;;5.66;100.00
79729;BME280;69218;52.132;5.418;2024-03-23T03:24:21;101086.13;;;5.59;100.00
79729;BME280;69218;52.132;5.418;2024-03-23T03:26:46;101094.09;;;5.56;100.00
79729;BME280;69218;52.132;5.418;2024-03-23T03:29:12;101091.66;;;5.53;100.00
79729;BME280;69218;52.132;5.418;2024-03-23T03:31:39;101090.75;;;5.54;100.00
79729;BME280;69218;52.132;5.418;2024-03-23T03:34:05;101092.59;;;5.51;100.00
79729;BME280;69218;52.132;5.418;2024-03-23T03:36:31;101088.66;;;5.44;100.00
79729;BME280;69218;52.132;5.418;2024-03-23T03:38:56;101078.81;;;5.34;100.00
79729;BME280;69218;52.132;5.418;2024-03-23T03:41:22;101071.34;;;5.28;100.00
79729;BME280;69218;52.132;5.418;2024-03-23T03:43:47;101076.91;;;5.21;100.00
79729;BME280;69218;52.132;5.418;2024-03-23T03:46:13;101069.16;;;5.20;100.00
79729;BME280;69218;52.132;5.418;2024-03-23T03:48:38;101066.56;;;5.20;100.00
79729;BME280;69218;52.132;5.418;2024-03-23T03:51:04;101067.72;;;5.14;100.00
79729;BME280;69218;52.132;5.418;2024-03-23T03:53:30;101059.28;;;5.11;100.00
79729;BME280;69218;52.132;5.418;2024-03-23T03:55:56;101063.53;;;5.12;100.00
79729;BME280;69218;52.132;5.418;2024-03-23T03:58:22;101063.72;;;5.09;100.00
79729;BME280;69218;52.132;5.418;2024-03-23T04:00:47;101062.03;;;5.08;100.00
79729;BME280;69218;52.132;5.418;2024-03-23T04:03:13;101053.38;;;5.07;100.00
79729;BME280;69218;52.132;5.418;2024-03-23T04:05:39;101065.72;;;5.04;100.00
79729;BME280;69218;52.132;5.418;2024-03-23T04:08:06;101071.13;;;4.99;100.00
79729;BME280;69218;52.132;5.418;2024-03-23T04:10:32;101060.31;;;4.91;100.00
79729;BME280;69218;52.132;5.418;2024-03-23T04:12:58;101060.63;;;4.85;100.00
79729;BME280;69218;52.132;5.418;2024-03-23T04:15:23;101052.41;;;4.77;100.00
79729;BME280;69218;52.132;5.418;2024-03-23T04:17:49;101049.16;;;4.73;100.00
79729;BME280;69218;52.132;5.418;2024-03-23T04:20:14;101047.53;;;4.71;100.00
79729;BME280;69218;52.132;5.418;2024-03-23T04:22:45;101054.75;;;4.65;100.00
79729;BME280;69218;52.132;5.418;2024-03-23T04:25:11;101048.69;;;4.65;100.00
79729;BME280;69218;52.132;5.418;2024-03-23T04:27:39;101044.28;;;4.67;100.00
79729;BME280;69218;52.132;5.418;2024-03-23T04:30:06;101054.66;;;4.67;100.00
79729;BME280;69218;52.132;5.418;2024-03-23T04:32:39;101048.69;;;4.65;100.00
79729;BME280;69218;52.132;5.418;2024-03-23T04:35:05;101045.78;;;4.71;100.00
79729;BME280;69218;52.132;5.418;2024-03-23T04:37:34;101045.78;;;4.71;100.00
79729;BME280;69218;52.132;5.418;2024-03-23T04:40:03;101045.25;;;4.64;100.00
79729;BME280;69218;52.132;5.418;2024-03-23T04:42:29;101048.03;;;4.61;100.00
79729;BME280;69218;52.132;5.418;2024-03-23T04:44:55;101051.44;;;4.62;100.00
79729;BME280;69218;52.132;5.418;2024-03-23T04:47:20;101052.19;;;4.64;100.00
79729;BME280;69218;52.132;5.418;2024-03-23T04:49:46;101049.59;;;4.64;100.00
79729;BME280;69218;52.132;5.418;2024-03-23T04:52:12;101050.53;;;4.63;100.00
79729;BME280;69218;52.132;5.418;2024-03-23T04:54:37;101043.44;;;4.66;100.00
79729;BME280;69218;52.132;5.418;2024-03-23T04:57:06;101041.59;;;4.68;100.00
79729;BME280;69218;52.132;5.418;2024-03-23T04:59:31;101044.50;;;4.62;100.00
79729;BME280;69218;52.132;5.418;2024-03-23T05:01:57;101037.81;;;4.58;100.00
79729;BME280;69218;52.132;5.418;2024-03-23T05:04:23;101039.72;;;4.55;100.00
79729;BME280;69218;52.132;5.418;2024-03-23T05:06:48;101039.88;;;4.52;100.00
79729;BME280;69218;52.132;5.418;2024-03-23T05:09:14;101041.78;;;4.48;100.00
79729;BME280;69218;52.132;5.418;2024-03-23T05:11:40;101038.50;;;4.45;100.00
79729;BME280;69218;52.132;5.418;2024-03-23T05:14:07;101042.00;;;4.44;100.00
79729;BME280;69218;52.132;5.418;2024-03-23T05:16:33;101039.41;;;4.44;100.00
79729;BME280;69218;52.132;5.418;2024-03-23T05:18:59;101046.44;;;4.41;100.00
79729;BME280;69218;52.132;5.418;2024-03-23T05:21:24;101048.28;;;4.39;100.00
79729;BME280;69218;52.132;5.418;2024-03-23T05:23:50;101046.59;;;4.38;100.00
79729;BME280;69218;52.132;5.418;2024-03-23T05:26:17;101047.56;;;4.36;100.00
79729;BME280;69218;52.132;5.418;2024-03-23T05:28:42;101047.66;;;4.34;100.00
79729;BME280;69218;52.132;5.418;2024-03-23T05:31:08;101048.06;;;4.27;100.00
79729;BME280;69218;52.132;5.418;2024-03-23T05:33:38;101049.88;;;4.25;100.00
79729;BME280;69218;52.132;5.418;2024-03-23T05:36:04;101049.19;;;4.21;100.00
79729;BME280;69218;52.132;5.418;2024-03-23T05:38:30;101051.69;;;4.23;100.00
79729;BME280;69218;52.132;5.418;2024-03-23T05:40:57;101045.53;;;4.25;100.00
79729;BME280;69218;52.132;5.418;2024-03-23T05:43:23;101049.63;;;4.29;100.00
79729;BME280;69218;52.132;5.418;2024-03-23T05:45:59;101047.56;;;4.36;100.00
79729;BME280;69218;52.132;5.418;2024-03-23T05:48:26;101053.31;;;4.43;100.00
79729;BME280;69218;52.132;5.418;2024-03-23T05:50:52;101047.06;;;4.47;100.00
79729;BME280;69218;52.132;5.418;2024-03-23T05:53:18;101046.03;;;4.49;100.00
79729;BME280;69218;52.132;5.418;2024-03-23T05:55:46;101044.16;;;4.53;100.00
79729;BME280;69218;52.132;5.418;2024-03-23T05:58:15;101041.47;;;4.54;100.00
79729;BME280;69218;52.132;5.418;2024-03-23T06:00:40;101045.66;;;4.57;100.00
79729;BME280;69218;52.132;5.418;2024-03-23T06:03:08;101034.50;;;4.55;100.00
79729;BME280;69218;52.132;5.418;2024-03-23T06:05:34;101037.94;;;4.55;100.00
79729;BME280;69218;52.132;5.418;2024-03-23T06:07:59;101041.47;;;4.54;100.00
79729;BME280;69218;52.132;5.418;2024-03-23T06:10:25;101037.19;;;4.53;100.00
79729;BME280;69218;52.132;5.418;2024-03-23T06:12:50;101040.63;;;4.54;100.00
79729;BME280;69218;52.132;5.418;2024-03-23T06:15:18;101041.47;;;4.54;100.00
79729;BME280;69218;52.132;5.418;2024-03-23T06:17:44;101042.38;;;4.53;100.00
79729;BME280;69218;52.132;5.418;2024-03-23T06:20:10;101044.97;;;4.53;100.00
79729;BME280;69218;52.132;5.418;2024-03-23T06:22:36;101044.16;;;4.53;100.00
79729;BME280;69218;52.132;5.418;2024-03-23T06:25:02;101039.78;;;4.53;100.00
79729;BME280;69218;52.132;5.418;2024-03-23T06:27:28;101038.03;;;4.54;100.00
79729;BME280;69218;52.132;5.418;2024-03-23T06:29:53;101034.59;;;4.53;100.00
79729;BME280;69218;52.132;5.418;2024-03-23T06:32:19;101033.69;;;4.54;100.00
79729;BME280;69218;52.132;5.418;2024-03-23T06:34:44;101031.69;;;4.59;100.00
79729;BME280;69218;52.132;5.418;2024-03-23T06:37:11;101029.75;;;4.63;100.00
79729;BME280;69218;52.132;5.418;2024-03-23T06:39:37;101033.09;;;4.65;100.00
79729;BME280;69218;52.132;5.418;2024-03-23T06:42:03;101031.22;;;4.68;100.00
79729;BME280;69218;52.132;5.418;2024-03-23T06:44:29;101031.03;;;4.72;100.00
79729;BME280;69218;52.132;5.418;2024-03-23T06:46:58;101029.97;;;4.76;100.00
79729;BME280;69218;52.132;5.418;2024-03-23T06:49:26;101015.06;;;4.79;100.00
79729;BME280;69218;52.132;5.418;2024-03-23T06:51:52;101029.66;;;4.82;100.00
79729;BME280;69218;52.132;5.418;2024-03-23T06:54:19;101019.91;;;4.85;100.00
79729;BME280;69218;52.132;5.418;2024-03-23T06:56:48;101026.56;;;4.91;100.00
79729;BME280;69218;52.132;5.418;2024-03-23T06:59:14;101021.97;;;4.96;100.00
79729;BME280;69218;52.132;5.418;2024-03-23T07:01:39;101031.19;;;5.02;100.00
79729;BME280;69218;52.132;5.418;2024-03-23T07:04:05;101033.53;;;5.06;100.00
79729;BME280;69218;52.132;5.418;2024-03-23T07:06:31;101038.41;;;5.12;100.00
79729;BME280;69218;52.132;5.418;2024-03-23T07:08:57;101035.56;;;5.17;100.00
79729;BME280;69218;52.132;5.418;2024-03-23T07:11:23;101034.53;;;5.19;100.00
79729;BME280;69218;52.132;5.418;2024-03-23T07:13:52;101026.44;;;5.26;100.00
79729;BME280;69218;52.132;5.418;2024-03-23T07:16:20;101021.72;;;5.32;100.00
79729;BME280;69218;52.132;5.418;2024-03-23T07:18:46;101025.56;;;5.41;100.00
79729;BME280;69218;52.132;5.418;2024-03-23T07:21:12;101025.16;;;5.48;100.00
79729;BME280;69218;52.132;5.418;2024-03-23T07:23:38;101023.16;;;5.54;100.00
79729;BME280;69218;52.132;5.418;2024-03-23T07:26:14;101022.63;;;5.63;100.00
79729;BME280;69218;52.132;5.418;2024-03-23T07:28:40;101018.75;;;5.70;100.00
79729;BME280;69218;52.132;5.418;2024-03-23T07:31:11;101026.06;;;5.79;100.00
79729;BME280;69218;52.132;5.418;2024-03-23T07:33:42;101021.34;;;5.86;100.00
79729;BME280;69218;52.132;5.418;2024-03-23T07:36:07;101032.09;;;5.95;100.00
79729;BME280;69218;52.132;5.418;2024-03-23T07:38:33;101022.91;;;6.04;100.00
79729;BME280;69218;52.132;5.418;2024-03-23T07:41:09;101014.28;;;6.18;100.00
79729;BME280;69218;52.132;5.418;2024-03-23T07:43:38;101026.69;;;6.28;100.00
79729;BME280;69218;52.132;5.418;2024-03-23T07:46:07;101024.38;;;6.38;100.00
79729;BME280;69218;52.132;5.418;2024-03-23T07:48:33;101023.28;;;6.42;100.00
79729;BME280;69218;52.132;5.418;2024-03-23T07:51:25;101016.94;;;6.46;100.00
79729;BME280;69218;52.132;5.418;2024-03-23T07:53:51;101020.50;;;6.59;100.00
79729;BME280;69218;52.132;5.418;2024-03-23T07:56:18;101024.78;;;6.75;100.00
79729;BME280;69218;52.132;5.418;2024-03-23T07:58:47;101023.00;;;6.89;100.00
79729;BME280;69218;52.132;5.418;2024-03-23T08:01:15;101030.06;;;6.87;100.00
79729;BME280;69218;52.132;5.418;2024-03-23T08:03:43;101026.91;;;6.97;100.00
79729;BME280;69218;52.132;5.418;2024-03-23T08:06:13;101025.69;;;7.02;100.00
79729;BME280;69218;52.132;5.418;2024-03-23T08:08:43;101024.69;;;7.05;100.00
79729;BME280;69218;52.132;5.418;2024-03-23T08:11:09;101012.06;;;7.11;100.00
79729;BME280;69218;52.132;5.418;2024-03-23T08:13:35;101017.66;;;7.20;100.00
79729;BME280;69218;52.132;5.418;2024-03-23T08:16:03;101016.81;;;7.33;100.00
79729;BME280;69218;52.132;5.418;2024-03-23T08:18:30;101013.59;;;7.42;100.00
79729;BME280;69218;52.132;5.418;2024-03-23T08:21:04;101018.81;;;7.42;100.00
79729;BME280;69218;52.132;5.418;2024-03-23T08:23:31;101009.66;;;7.50;97.95
79729;BME280;69218;52.132;5.418;2024-03-23T08:26:02;101019.25;;;7.49;98.86
79729;BME280;69218;52.132;5.418;2024-03-23T08:28:29;101017.00;;;7.57;98.51
79729;BME280;69218;52.132;5.418;2024-03-23T08:30:55;101015.16;;;7.72;99.03
79729;BME280;69218;52.132;5.418;2024-03-23T08:33:22;101023.44;;;7.79;97.89
79729;BME280;69218;52.132;5.418;2024-03-23T08:36:03;101026.53;;;7.98;98.23
79729;BME280;69218;52.132;5.418;2024-03-23T08:38:29;101026.97;;;8.05;96.38
79729;BME280;69218;52.132;5.418;2024-03-23T08:41:01;101024.84;;;7.97;95.94
79729;BME280;69218;52.132;5.418;2024-03-23T08:43:30;101021.81;;;7.90;94.78
79729;BME280;69218;52.132;5.418;2024-03-23T08:46:06;101033.91;;;7.91;93.47
79729;BME280;69218;52.132;5.418;2024-03-23T08:48:34;101033.53;;;7.97;90.99
79729;BME280;69218;52.132;5.418;2024-03-23T08:51:05;101021.06;;;7.88;91.73
79729;BME280;69218;52.132;5.418;2024-03-23T08:53:31;101021.50;;;7.68;91.60
79729;BME280;69218;52.132;5.418;2024-03-23T08:55:57;101016.59;;;7.63;91.83
79729;BME280;69218;52.132;5.418;2024-03-23T08:58:25;101023.59;;;7.63;91.15
79729;BME280;69218;52.132;5.418;2024-03-23T09:00:55;101034.72;;;7.79;92.07
79729;BME280;69218;52.132;5.418;2024-03-23T09:03:24;101020.88;;;7.64;88.74
79729;BME280;69218;52.132;5.418;2024-03-23T09:05:50;101017.28;;;7.53;85.73
79729;BME280;69218;52.132;5.418;2024-03-23T09:08:15;101009.56;;;7.51;86.44
79729;BME280;69218;52.132;5.418;2024-03-23T09:10:42;100999.97;;;7.52;86.58
79729;BME280;69218;52.132;5.418;2024-03-23T09:13:08;101014.09;;;7.62;87.62
79729;BME280;69218;52.132;5.418;2024-03-23T09:15:36;101017.53;;;7.89;88.86
79729;BME280;69218;52.132;5.418;2024-03-23T09:18:03;101022.53;;;7.92;87.96
79729;BME280;69218;52.132;5.418;2024-03-23T09:20:32;101012.16;;;7.78;87.95
79729;BME280;69218;52.132;5.418;2024-03-23T09:22:58;101021.81;;;7.63;89.22
79729;BME280;69218;52.132;5.418;2024-03-23T09:25:24;101025.03;;;7.54;91.38
79729;BME280;69218;52.132;5.418;2024-03-23T09:27:50;101019.75;;;7.41;92.77
79729;BME280;69218;52.132;5.418;2024-03-23T09:30:16;101019.00;;;7.39;94.16
79729;BME280;69218;52.132;5.418;2024-03-23T09:32:43;101012.22;;;7.37;94.77
79729;BME280;69218;52.132;5.418;2024-03-23T09:35:09;101005.09;;;7.26;93.39
79729;BME280;69218;52.132;5.418;2024-03-23T09:37:35;101017.47;;;7.23;95.19
79729;BME280;69218;52.132;5.418;2024-03-23T09:40:01;101014.22;;;7.19;94.91
79729;BME280;69218;52.132;5.418;2024-03-23T09:42:27;101014.03;;;7.22;94.57
79729;BME280;69218;52.132;5.418;2024-03-23T09:44:53;101013.63;;;7.28;95.28
79729;BME280;69218;52.132;5.418;2024-03-23T09:47:19;101032.28;;;7.22;92.43
79729;BME280;69218;52.132;5.418;2024-03-23T09:49:45;101017.38;;;7.10;93.92
79729;BME280;69218;52.132;5.418;2024-03-23T09:52:10;101010.88;;;7.03;94.62
79729;BME280;69218;52.132;5.418;2024-03-23T09:54:36;101015.25;;;7.02;94.48
79729;BME280;69218;52.132;5.418;2024-03-23T09:57:02;101012.25;;;7.23;94.53
79729;BME280;69218;52.132;5.418;2024-03-23T09:59:29;101003.22;;;7.55;96.41
79729;BME280;69218;52.132;5.418;2024-03-23T10:01:54;100992.44;;;7.87;97.10
79729;BME280;69218;52.132;5.418;2024-03-23T10:04:37;100997.41;;;8.17;96.83
79729;BME280;69218;52.132;5.418;2024-03-23T10:07:22;100999.47;;;8.39;95.71
79729;BME280;69218;52.132;5.418;2024-03-23T10:09:48;100995.38;;;8.60;94.57
79729;BME280;69218;52.132;5.418;2024-03-23T10:12:18;100984.88;;;8.86;94.68
79729;BME280;69218;52.132;5.418;2024-03-23T10:14:44;100982.22;;;8.98;92.30
79729;BME280;69218;52.132;5.418;2024-03-23T10:17:21;100982.22;;;9.11;89.56
79729;BME280;69218;52.132;5.418;2024-03-23T10:19:51;100983.09;;;9.23;89.58
79729;BME280;69218;52.132;5.418;2024-03-23T10:22:21;101000.88;;;9.30;88.72
79729;BME280;69218;52.132;5.418;2024-03-23T10:24:48;100985.44;;;9.15;86.81
79729;BME280;69218;52.132;5.418;2024-03-23T10:27:21;100992.81;;;8.84;85.78
79729;BME280;69218;52.132;5.418;2024-03-23T10:29:48;101000.84;;;8.94;87.23
79729;BME280;69218;52.132;5.418;2024-03-23T10:32:15;100995.19;;;9.00;83.89
79729;BME280;69218;52.132;5.418;2024-03-23T10:34:42;100997.16;;;9.09;83.73
79729;BME280;69218;52.132;5.418;2024-03-23T10:37:08;100983.78;;;9.38;84.64
79729;BME280;69218;52.132;5.418;2024-03-23T10:39:38;100974.53;;;9.69;80.28
79729;BME280;69218;52.132;5.418;2024-03-23T10:42:06;100993.03;;;9.89;80.22
79729;BME280;69218;52.132;5.418;2024-03-23T10:44:33;100968.78;;;9.99;81.68
79729;BME280;69218;52.132;5.418;2024-03-23T10:47:00;100976.94;;;10.18;82.02
79729;BME280;69218;52.132;5.418;2024-03-23T10:49:33;100978.81;;;10.05;81.62
79729;BME280;69218;52.132;5.418;2024-03-23T10:52:00;100991.34;;;9.77;79.33
79729;BME280;69218;52.132;5.418;2024-03-23T10:54:26;100984.53;;;9.51;80.75
79729;BME280;69218;52.132;5.418;2024-03-23T10:57:17;101016.38;;;9.21;83.53
79729;BME280;69218;52.132;5.418;2024-03-23T10:59:42;101013.84;;;8.83;84.01
79729;BME280;69218;52.132;5.418;2024-03-23T11:02:18;101006.31;;;8.65;86.36
79729;BME280;69218;52.132;5.418;2024-03-23T11:04:44;101006.22;;;8.67;88.46
79729;BME280;69218;52.132;5.418;2024-03-23T11:09:53;101002.56;;;9.19;88.45
79729;BME280;69218;52.132;5.418;2024-03-23T11:15:11;100982.75;;;9.51;86.35
79729;BME280;69218;52.132;5.418;2024-03-23T11:17:37;100985.31;;;9.88;88.32
79729;BME280;69218;52.132;5.418;2024-03-23T11:20:04;100978.75;;;9.94;85.87
79729;BME280;69218;52.132;5.418;2024-03-23T11:22:43;100985.25;;;9.66;85.86
79729;BME280;69218;52.132;5.418;2024-03-23T11:25:23;100983.59;;;9.28;81.57
79729;BME280;69218;52.132;5.418;2024-03-23T11:27:51;100997.78;;;9.13;83.24
79729;BME280;69218;52.132;5.418;2024-03-23T11:30:17;100992.13;;;9.19;84.26
79729;BME280;69218;52.132;5.418;2024-03-23T11:32:47;100972.63;;;9.23;81.74
79729;BME280;69218;52.132;5.418;2024-03-23T11:35:27;100982.75;;;9.51;81.78
79729;BME280;69218;52.132;5.418;2024-03-23T11:40:32;100961.56;;;10.13;80.48
79729;BME280;69218;52.132;5.418;2024-03-23T11:42:59;100963.53;;;10.23;80.77
79729;BME280;69218;52.132;5.418;2024-03-23T11:45:25;100959.44;;;10.18;79.94
79729;BME280;69218;52.132;5.418;2024-03-23T11:50:34;100953.09;;;10.21;74.75
79729;BME280;69218;52.132;5.418;2024-03-23T11:55:55;100948.69;;;10.10;71.95
79729;BME280;69218;52.132;5.418;2024-03-23T11:58:23;100946.25;;;9.85;72.15
79729;BME280;69218;52.132;5.418;2024-03-23T12:03:18;100961.88;;;9.62;70.87
79729;BME280;69218;52.132;5.418;2024-03-23T12:05:50;100956.13;;;9.46;71.67
79729;BME280;69218;52.132;5.418;2024-03-23T12:08:19;100960.59;;;9.44;72.75
79729;BME280;69218;52.132;5.418;2024-03-23T12:11:04;100964.56;;;9.50;73.95
79729;BME280;69218;52.132;5.418;2024-03-23T12:13:29;100951.00;;;9.45;74.24
79729;BME280;69218;52.132;5.418;2024-03-23T12:16:09;100956.28;;;9.32;74.00
79729;BME280;69218;52.132;5.418;2024-03-23T12:18:35;100952.50;;;9.12;72.82
79729;BME280;69218;52.132;5.418;2024-03-23T12:21:00;100956.56;;;9.16;75.13
79729;BME280;69218;52.132;5.418;2024-03-23T12:23:26;100943.50;;;9.51;73.85
79729;BME280;69218;52.132;5.418;2024-03-23T12:25:51;100942.09;;;9.82;75.01
79729;BME280;69218;52.132;5.418;2024-03-23T12:28:17;100928.81;;;10.19;76.43
79729;BME280;69218;52.132;5.418;2024-03-23T12:30:42;100932.31;;;10.31;71.74
79729;BME280;69218;52.132;5.418;2024-03-23T12:33:08;100926.84;;;10.23;72.20
79729;BME280;69218;52.132;5.418;2024-03-23T12:35:34;100923.34;;;10.11;66.93
79729;BME280;69218;52.132;5.418;2024-03-23T12:38:00;100938.94;;;10.12;69.87
79729;BME280;69218;52.132;5.418;2024-03-23T12:40:25;100929.34;;;10.35;70.02
79729;BME280;69218;52.132;5.418;2024-03-23T12:42:52;100925.91;;;10.57;67.38
79729;BME280;69218;52.132;5.418;2024-03-23T12:45:18;100932.44;;;10.74;69.10
79729;BME280;69218;52.132;5.418;2024-03-23T12:47:43;100915.56;;;10.99;69.50
79729;BME280;69218;52.132;5.418;2024-03-23T12:50:09;100909.00;;;11.05;67.12
79729;BME280;69218;52.132;5.418;2024-03-23T12:52:36;100913.81;;;10.88;69.74
79729;BME280;69218;52.132;5.418;2024-03-23T12:55:02;100923.50;;;10.65;69.46
79729;BME280;69218;52.132;5.418;2024-03-23T12:57:29;100918.72;;;10.82;70.25
79729;BME280;69218;52.132;5.418;2024-03-23T12:59:54;100919.97;;;10.98;66.90
79729;BME280;69218;52.132;5.418;2024-03-23T13:02:20;100919.44;;;10.72;67.26
79729;BME280;69218;52.132;5.418;2024-03-23T13:04:50;100932.56;;;10.39;67.76
79729;BME280;69218;52.132;5.418;2024-03-23T13:07:17;100924.28;;;10.21;68.37
79729;BME280;69218;52.132;5.418;2024-03-23T13:09:43;100926.78;;;10.11;69.41
79729;BME280;69218;52.132;5.418;2024-03-23T13:12:09;100928.56;;;10.11;68.93
79729;BME280;69218;52.132;5.418;2024-03-23T13:14:35;100926.06;;;9.98;68.26
79729;BME280;69218;52.132;5.418;2024-03-23T13:17:00;100927.00;;;9.97;71.82
79729;BME280;69218;52.132;5.418;2024-03-23T13:19:28;100920.78;;;10.44;68.04
79729;BME280;69218;52.132;5.418;2024-03-23T13:21:56;100916.69;;;10.74;65.64
79729;BME280;69218;52.132;5.418;2024-03-23T13:24:23;100923.28;;;10.46;63.80
79729;BME280;69218;52.132;5.418;2024-03-23T13:26:52;100943.47;;;10.10;64.31
79729;BME280;69218;52.132;5.418;2024-03-23T13:29:18;100956.38;;;9.89;67.61
79729;BME280;69218;52.132;5.418;2024-03-23T13:31:45;100979.22;;;9.52;69.48
79729;BME280;69218;52.132;5.418;2024-03-23T13:34:11;100952.09;;;9.29;71.24
79729;BME280;69218;52.132;5.418;2024-03-23T13:36:36;100938.81;;;9.32;74.41
79729;BME280;69218;52.132;5.418;2024-03-23T13:39:03;100934.69;;;9.41;74.32
79729;BME280;69218;52.132;5.418;2024-03-23T13:41:40;100930.78;;;9.47;73.99
79729;BME280;69218;52.132;5.418;2024-03-23T13:44:06;100936.03;;;9.82;75.03
79729;BME280;69218;52.132;5.418;2024-03-23T13:46:32;100925.53;;;10.28;72.83
79729;BME280;69218;52.132;5.418;2024-03-23T13:48:58;100925.03;;;10.57;71.49
79729;BME280;69218;52.132;5.418;2024-03-23T13:51:24;100927.31;;;10.61;70.36
79729;BME280;69218;52.132;5.418;2024-03-23T13:53:54;100918.50;;;10.40;71.74
79729;BME280;69218;52.132;5.418;2024-03-23T13:56:20;100918.75;;;10.26;71.19
79729;BME280;69218;52.132;5.418;2024-03-23T13:58:46;100918.22;;;10.21;69.98
79729;BME280;69218;52.132;5.418;2024-03-23T14:01:15;100920.38;;;10.15;71.02